Kolba, Russia
Current Conditions -  °F | °C
As of 9:30 AM on Monday 22 Dec 2014 (Local Time) from UNKL Reporting Station
Broken Clouds Broken Clouds  
Wind Chill: 19°   Ceiling: 8300
Heat Index: 27°   Visibility: 6mi
Dew Point: 18°   Wind: 7mph
Humidity: 69%   Direction: 160°SSE
Pressure: 30.15"   Gusts: NA
Location:  55.08°N, 93.37°E
Report Text: UNKL 220230Z 16003MPS 9000 SCT032CB BKN083 M03/M08 Q1021 NOSIGRMK QFE740 29////65
Loading
Personal Weather Stations






























Interactive Weather Map New forecast layout! Learn more

10-Day Weather Forecast

Advertisements
Track Severe Weather on mobile